Estación Meteorológica Peña el Pijo (Robertgarden) [ 02/03/23 03:36:08 CET ]

Fecha Hora Presion(HPa) Temp (°C) Humedad % Rocio (°C) Viento ( m/s) Direccion Lluvia 1Hora(mm) Lluvia 24H(mm) LLuvia Total(mm)
2012-Jun-23 01:01:14 1016.200 19.6 67 13.3         167.83
2012-Jun-23 02:01:16 1016.200 18.0 71 12.7         167.83
2012-Jun-23 03:01:39 1016.000 16.3 75 11.9         167.83
2012-Jun-23 04:03:14 1015.800 14.9 79 11.3         167.83
2012-Jun-23 05:01:14 1015.500 14.4 81 11.2         167.83
2012-Jun-23 06:01:18 1015.900 13.9 82 10.9         167.83
2012-Jun-23 07:01:14 1016.200 13.3 82 10.3         167.83
2012-Jun-23 08:01:17 1016.600 14.9 81 11.7         167.83
2012-Jun-23 09:01:13 1016.900 22.3 59 13.9         167.83
2012-Jun-23 10:01:17 1017.000 25.9 50 14.7         167.83
2012-Jun-23 11:01:15 1016.900 28.8 41 14.3 0.7 ENE     167.83
2012-Jun-23 12:01:14 1016.800 32.6 35 15.0         167.83
2012-Jun-23 13:01:17 1016.700 34.9 30 14.8         167.83
2012-Jun-23 14:01:14 1016.100 35.4 29 14.6         167.83
2012-Jun-23 15:01:17 1015.800 35.6 27 13.5         167.83
2012-Jun-23 16:01:16 1015.700 35.3 27 13.3         167.83
2012-Jun-23 17:01:16 1015.600 35.2 26 12.6         167.83
2012-Jun-23 18:01:14 1015.100 35.9 25 12.6         167.83
2012-Jun-23 19:01:14 1015.200 34.0 28 12.8         167.83
2012-Jun-23 20:01:12 1015.600 32.3 32 13.4         167.83
2012-Jun-23 21:01:14 1016.200 28.3 39 13.0         167.83
2012-Jun-23 22:01:11 1016.800 25.8 45 12.9         167.83
2012-Jun-23 23:01:18 1017.500 23.4 51 12.7         167.83

Temperatura Máxima:35°    Temperatura Mínima:13°
Presión Máxima:1017.500 Hpa    Presión Mínima:1015.100 Hpa


Volver